Main page
METAR-TAF:

METAR-TAF

Airports :

Victoria Falls Airport

Victoria Falls, Zimbabwe

latitude: 18-06S, longitude: 025-51E, elevation: 1061 m

Current weather observation

The report was made 19 hours and 34 minutes ago, at 09:00 UTC
Wind 9 kt from the East/Northeast, varying between Northeast and East
Temperature 25°C
Humidity 69%
Pressure 1020 hPa
Few clouds at a height of 2500 ft
Scattered clouds at a height of 9000 ft
Broken clouds at a height of 30000 ft

METAR: FVFA 200900Z 06009KT 040V100 //// FEW025 SCT090 BKN300 25/19 Q1020 NOSIG

Time: 06:34 (04:34 UTC)


TAF: missing

Weather observations and forecasts of more than 4000 airports (METAR and TAF reports).

The available stations are represented by yellow and red dots on the map.

Hover mouse over dot to see the name of the station.

Then click to see weather observations and forecasts.

To change the map : click on the green buttons with a black cross to zoom in, on the green button with a dash to zoom out, or on the green arrows for adjacent maps.


METAR-TAF: